createdAt,value
2023-05-10T00:01:09.566Z,97.74
2023-05-10T00:03:36.058Z,97.34
2023-05-10T00:06:02.763Z,97.63
2023-05-10T00:08:29.316Z,97.66
2023-05-10T00:10:55.736Z,97.59
2023-05-10T00:13:23.383Z,97.80
2023-05-10T00:15:49.953Z,98.01
2023-05-10T00:18:16.442Z,97.53
2023-05-10T00:20:43.271Z,97.29
2023-05-10T00:23:09.742Z,97.20
2023-05-10T00:25:36.218Z,97.40
2023-05-10T00:28:02.929Z,97.39
2023-05-10T00:30:29.566Z,97.10
2023-05-10T00:32:56.100Z,97.18
2023-05-10T00:35:22.750Z,97.53
2023-05-10T00:37:49.414Z,96.83
2023-05-10T00:40:16.163Z,96.83
2023-05-10T00:42:46.326Z,96.75
2023-05-10T00:45:12.970Z,97.08
2023-05-10T00:47:40.576Z,97.14
2023-05-10T00:50:08.184Z,97.02
2023-05-10T00:52:34.805Z,97.07
2023-05-10T00:55:01.575Z,97.57
2023-05-10T00:57:28.227Z,97.29
2023-05-10T00:59:54.723Z,97.64
2023-05-10T01:02:21.266Z,98.01
2023-05-10T01:04:48.364Z,98.14
2023-05-10T01:07:14.872Z,98.13
2023-05-10T01:09:41.437Z,98.72
2023-05-10T01:12:08.509Z,98.83
2023-05-10T01:14:37.381Z,98.60
2023-05-10T01:17:05.700Z,99.11
2023-05-10T01:19:35.737Z,99.27
2023-05-10T01:22:30.975Z,98.93
2023-05-10T01:25:34.098Z,99.25
2023-05-10T01:28:19.047Z,98.58
2023-05-10T01:31:13.872Z,99.41
2023-05-10T01:33:47.888Z,99.12
2023-05-10T01:36:27.171Z,99.13
2023-05-10T01:39:29.668Z,99.51
2023-05-10T01:42:04.659Z,99.24
2023-05-10T01:44:43.744Z,99.60
2023-05-10T01:47:13.314Z,99.95
2023-05-10T01:49:45.382Z,99.61
2023-05-10T01:52:14.942Z,99.73
2023-05-10T01:54:45.656Z,99.64
2023-05-10T01:57:15.360Z,99.26
2023-05-10T01:59:46.358Z,99.10
2023-05-10T02:02:17.951Z,98.90
2023-05-10T02:04:46.327Z,99.35
2023-05-10T02:07:13.977Z,99.18
2023-05-10T02:09:43.226Z,99.74
2023-05-10T02:12:10.430Z,98.92
2023-05-10T02:14:37.881Z,99.19
2023-05-10T02:17:07.577Z,99.71
2023-05-10T02:19:36.833Z,99.48
2023-05-10T02:22:04.768Z,99.23
2023-05-10T02:24:35.012Z,99.60
2023-05-10T02:27:04.371Z,99.11
2023-05-10T02:29:32.926Z,99.70
2023-05-10T02:32:00.709Z,99.61
2023-05-10T02:34:28.772Z,99.73
2023-05-10T02:36:57.090Z,99.29
2023-05-10T02:39:25.689Z,99.64
2023-05-10T02:41:54.438Z,99.07
2023-05-10T02:44:21.478Z,98.92
2023-05-10T02:46:48.815Z,98.63
2023-05-10T02:49:16.236Z,98.90
2023-05-10T02:51:48.590Z,98.79
2023-05-10T02:54:25.343Z,98.68
2023-05-10T02:56:57.280Z,98.82
2023-05-10T02:59:23.818Z,98.18
2023-05-10T03:01:50.404Z,98.43
2023-05-10T03:04:17.007Z,98.29
2023-05-10T03:06:43.748Z,98.33
2023-05-10T03:09:13.206Z,98.10
2023-05-10T03:12:22.756Z,98.69
2023-05-10T03:14:53.255Z,98.43
2023-05-10T03:17:30.671Z,98.31
2023-05-10T03:20:04.174Z,98.29
2023-05-10T03:22:47.984Z,98.56
2023-05-10T03:25:17.306Z,98.97
2023-05-10T03:27:45.094Z,98.59
2023-05-10T03:30:13.172Z,99.33
2023-05-10T03:32:40.363Z,98.91
2023-05-10T03:35:12.357Z,98.74
2023-05-10T03:37:38.845Z,98.65
2023-05-10T03:40:06.718Z,99.10
2023-05-10T03:42:35.547Z,99.26
2023-05-10T03:45:02.000Z,99.01
2023-05-10T03:47:28.471Z,99.13
2023-05-10T03:49:54.896Z,98.97
2023-05-10T03:52:21.321Z,98.87
2023-05-10T03:54:48.315Z,99.47
2023-05-10T03:57:15.338Z,99.18
2023-05-10T03:59:41.763Z,99.17
2023-05-10T04:02:08.296Z,99.56
2023-05-10T04:04:36.399Z,99.12
2023-05-10T04:07:02.821Z,99.12
2023-05-10T04:09:29.404Z,99.50
2023-05-10T04:11:56.055Z,99.75
2023-05-10T04:14:22.514Z,98.96
2023-05-10T04:16:48.962Z,98.91
2023-05-10T04:19:15.434Z,99.26
2023-05-10T04:21:41.959Z,98.59
2023-05-10T04:24:08.386Z,98.97
2023-05-10T04:26:34.850Z,98.14
2023-05-10T04:29:01.289Z,98.41
2023-05-10T04:31:28.796Z,98.42
2023-05-10T04:33:55.308Z,98.13
2023-05-10T04:36:21.864Z,98.40
2023-05-10T04:38:48.246Z,98.78
2023-05-10T04:41:14.756Z,98.20
2023-05-10T04:43:41.293Z,98.28
2023-05-10T04:46:08.486Z,98.53
2023-05-10T04:48:35.260Z,98.48
2023-05-10T04:51:01.853Z,98.46
2023-05-10T04:53:28.344Z,98.19
2023-05-10T04:55:54.763Z,97.96
2023-05-10T04:58:21.177Z,97.55
2023-05-10T05:00:47.635Z,97.84
2023-05-10T05:03:14.119Z,98.22
2023-05-10T05:05:40.633Z,98.12
2023-05-10T05:08:07.140Z,97.55
2023-05-10T05:10:33.596Z,97.73
2023-05-10T05:13:00.155Z,97.51
2023-05-10T05:15:26.755Z,97.66
2023-05-10T05:17:53.214Z,97.63
2023-05-10T05:20:20.014Z,97.11
2023-05-10T05:22:46.509Z,97.29
2023-05-10T05:25:13.658Z,97.14
2023-05-10T05:27:40.129Z,97.32
2023-05-10T05:30:07.444Z,97.02
2023-05-10T05:32:34.011Z,96.52
2023-05-10T05:35:00.618Z,96.68
2023-05-10T05:37:27.444Z,96.19
2023-05-10T05:39:55.353Z,96.68
2023-05-10T05:42:21.861Z,96.66
2023-05-10T05:44:48.404Z,96.32
2023-05-10T05:47:14.918Z,96.11
2023-05-10T05:49:41.465Z,95.76
2023-05-10T05:52:07.937Z,95.41
2023-05-10T05:54:34.468Z,94.80
2023-05-10T05:57:01.678Z,94.80
2023-05-10T05:59:28.702Z,94.39
2023-05-10T06:01:55.420Z,95.27
2023-05-10T06:04:22.080Z,95.15
2023-05-10T06:06:48.577Z,94.71
2023-05-10T06:09:15.074Z,94.64
2023-05-10T06:11:41.530Z,94.40
2023-05-10T06:14:08.863Z,95.05
2023-05-10T06:16:35.935Z,94.94
2023-05-10T06:19:03.670Z,94.41
2023-05-10T06:21:30.982Z,94.62
2023-05-10T06:23:57.706Z,94.68
2023-05-10T06:26:24.330Z,94.05
2023-05-10T06:28:50.770Z,93.93
2023-05-10T06:31:17.337Z,93.68
2023-05-10T06:33:43.818Z,94.02
2023-05-10T06:36:10.382Z,93.36
2023-05-10T06:38:36.993Z,93.16
2023-05-10T06:41:03.578Z,92.62
2023-05-10T06:43:30.061Z,92.59
2023-05-10T06:45:56.907Z,92.63
2023-05-10T06:48:23.422Z,92.00
2023-05-10T06:50:50.151Z,92.11
2023-05-10T06:53:16.599Z,91.83
2023-05-10T06:55:43.001Z,92.09
2023-05-10T06:58:09.378Z,92.02
2023-05-10T07:00:36.066Z,92.34
2023-05-10T07:03:02.545Z,92.58
2023-05-10T07:05:29.244Z,92.83
2023-05-10T07:07:55.729Z,92.12
2023-05-10T07:10:22.308Z,91.60
2023-05-10T07:12:48.877Z,91.14
2023-05-10T07:15:16.988Z,91.18
2023-05-10T07:17:45.921Z,91.15
2023-05-10T07:20:13.132Z,90.52
2023-05-10T07:22:39.613Z,90.40
2023-05-10T07:25:06.746Z,89.72
2023-05-10T07:27:33.533Z,89.69
2023-05-10T07:30:00.003Z,89.53
2023-05-10T07:32:26.571Z,89.75
2023-05-10T07:34:53.190Z,89.94
2023-05-10T07:37:19.575Z,89.96
2023-05-10T07:39:46.208Z,90.41
2023-05-10T07:42:12.624Z,90.56
2023-05-10T07:44:39.058Z,90.33
2023-05-10T07:47:05.542Z,90.37
2023-05-10T07:49:32.010Z,90.83
2023-05-10T07:51:58.491Z,90.67
2023-05-10T07:54:24.929Z,90.42
2023-05-10T07:56:51.960Z,89.68
2023-05-10T07:59:18.678Z,89.01
2023-05-10T08:01:45.544Z,88.11
2023-05-10T08:04:12.748Z,87.45
2023-05-10T08:06:40.206Z,87.58
2023-05-10T08:09:06.612Z,87.62
2023-05-10T08:11:34.392Z,87.30
2023-05-10T08:14:01.563Z,86.65
2023-05-10T08:16:28.437Z,86.42
2023-05-10T08:18:56.263Z,85.57
2023-05-10T08:21:22.929Z,84.92
2023-05-10T08:23:49.990Z,83.76
2023-05-10T08:26:16.530Z,83.55
2023-05-10T08:28:43.130Z,84.32
2023-05-10T08:31:09.636Z,84.68
2023-05-10T08:33:36.066Z,84.55
2023-05-10T08:36:02.807Z,84.12
2023-05-10T08:38:29.364Z,84.46
2023-05-10T08:40:59.551Z,84.93
2023-05-10T08:43:29.849Z,84.85
2023-05-10T08:45:57.753Z,84.71
2023-05-10T08:48:25.787Z,84.63
2023-05-10T08:50:55.950Z,85.03
2023-05-10T08:53:26.052Z,85.20
2023-05-10T08:55:53.435Z,85.91
2023-05-10T08:58:20.497Z,85.12
2023-05-10T09:00:49.586Z,84.82
2023-05-10T09:03:16.616Z,84.73
2023-05-10T09:05:43.264Z,82.65
2023-05-10T09:08:09.940Z,81.01
2023-05-10T09:10:36.673Z,80.69
2023-05-10T09:13:03.736Z,79.92
2023-05-10T09:15:30.250Z,79.89
2023-05-10T09:17:57.192Z,79.53
2023-05-10T09:20:23.683Z,79.08
2023-05-10T09:22:50.543Z,76.46
2023-05-10T09:25:18.100Z,75.10
2023-05-10T09:27:48.749Z,75.69
2023-05-10T09:30:24.764Z,75.74
2023-05-10T09:32:51.585Z,75.37
2023-05-10T09:35:20.685Z,75.53
2023-05-10T09:37:49.838Z,73.63
2023-05-10T09:40:21.157Z,72.48
2023-05-10T09:43:03.047Z,72.57
2023-05-10T09:45:31.667Z,71.40
2023-05-10T09:47:59.564Z,71.59
2023-05-10T09:50:27.082Z,71.87
2023-05-10T09:53:01.108Z,71.71
2023-05-10T09:55:40.432Z,71.90
2023-05-10T09:58:11.811Z,71.46
2023-05-10T10:00:40.589Z,70.83
2023-05-10T10:03:12.797Z,70.08
2023-05-10T10:05:41.475Z,70.92
2023-05-10T10:08:07.891Z,70.29
2023-05-10T10:10:34.927Z,70.71
2023-05-10T10:13:02.662Z,70.91
2023-05-10T10:15:29.124Z,70.81
2023-05-10T10:17:55.757Z,71.18
2023-05-10T10:20:23.830Z,71.57
2023-05-10T10:22:50.470Z,71.31
2023-05-10T10:25:18.518Z,72.45
2023-05-10T10:27:54.308Z,72.56
2023-05-10T10:30:43.752Z,72.52
2023-05-10T10:33:41.815Z,72.75
2023-05-10T10:36:08.658Z,71.52
2023-05-10T10:39:00.417Z,71.64
2023-05-10T10:41:37.740Z,71.82
2023-05-10T10:44:26.166Z,71.23
2023-05-10T10:47:06.994Z,70.55
2023-05-10T10:49:34.735Z,71.50
2023-05-10T10:52:32.015Z,72.83
2023-05-10T10:55:13.507Z,73.36
2023-05-10T10:58:01.012Z,73.25
2023-05-10T11:00:32.289Z,73.52
2023-05-10T11:03:19.642Z,74.19
2023-05-10T11:05:47.379Z,74.25
2023-05-10T11:08:31.162Z,75.35
2023-05-10T11:11:00.760Z,76.06
2023-05-10T11:13:45.837Z,76.63
2023-05-10T11:16:18.896Z,77.52
2023-05-10T11:19:03.529Z,78.40
2023-05-10T11:21:31.875Z,78.58
2023-05-10T11:24:00.106Z,79.47
2023-05-10T11:26:32.247Z,80.19
2023-05-10T11:29:02.928Z,80.27
2023-05-10T11:31:29.805Z,81.17
2023-05-10T11:33:59.190Z,81.56
2023-05-10T11:36:30.611Z,82.33
2023-05-10T11:38:57.724Z,83.15
2023-05-10T11:41:25.556Z,83.20
2023-05-10T11:43:53.455Z,83.27
2023-05-10T11:46:22.751Z,83.37
2023-05-10T11:49:03.003Z,83.39
2023-05-10T11:51:29.622Z,82.63
2023-05-10T11:53:57.846Z,79.94
2023-05-10T11:56:24.723Z,79.69
2023-05-10T11:58:56.764Z,79.72
2023-05-10T12:01:24.419Z,79.76
2023-05-10T12:03:52.533Z,79.07
2023-05-10T12:06:20.616Z,78.85
2023-05-10T12:08:48.606Z,78.24
2023-05-10T12:11:16.560Z,78.04
2023-05-10T12:13:47.528Z,77.64
2023-05-10T12:16:21.815Z,77.71
2023-05-10T12:18:57.176Z,78.31
2023-05-10T12:21:24.125Z,77.47
2023-05-10T12:23:55.434Z,77.06
2023-05-10T12:26:27.362Z,76.92
2023-05-10T12:28:54.841Z,76.59
2023-05-10T12:31:21.620Z,75.84
2023-05-10T12:33:50.203Z,76.21
2023-05-10T12:36:17.473Z,75.99
2023-05-10T12:38:48.825Z,74.92
2023-05-10T12:41:16.977Z,75.04
2023-05-10T12:43:43.694Z,74.98
2023-05-10T12:46:12.092Z,75.50
2023-05-10T12:48:39.790Z,75.47
2023-05-10T12:51:10.150Z,75.69
2023-05-10T12:53:37.168Z,74.85
2023-05-10T12:56:03.819Z,75.76
2023-05-10T13:01:01.029Z,80.23
2023-05-10T13:03:27.517Z,81.75
2023-05-10T13:05:54.018Z,82.98
2023-05-10T13:08:20.464Z,84.66
2023-05-10T13:10:47.002Z,85.61
2023-05-10T13:13:13.539Z,86.70
2023-05-10T13:15:40.048Z,88.31
2023-05-10T13:18:06.565Z,88.48
2023-05-10T13:20:33.048Z,89.44
2023-05-10T13:22:59.526Z,89.24
2023-05-10T13:25:25.921Z,89.86
2023-05-10T13:27:52.514Z,90.93
2023-05-10T13:30:19.266Z,91.36
2023-05-10T13:32:46.625Z,91.95
2023-05-10T13:35:13.133Z,91.86
2023-05-10T13:37:39.572Z,92.20
2023-05-10T13:40:07.159Z,92.45
2023-05-10T13:42:34.515Z,92.78
2023-05-10T13:45:02.740Z,93.09
2023-05-10T13:47:29.472Z,92.66
2023-05-10T13:49:56.205Z,92.41
2023-05-10T13:52:22.697Z,92.61
2023-05-10T13:54:49.349Z,92.48
2023-05-10T13:57:17.666Z,92.67
2023-05-10T13:59:44.183Z,92.14
2023-05-10T14:02:11.692Z,91.85
2023-05-10T14:04:38.635Z,92.39
2023-05-10T14:07:05.374Z,92.41
2023-05-10T14:09:31.930Z,91.81
2023-05-10T14:11:58.676Z,91.59
2023-05-10T14:14:25.839Z,91.43
2023-05-10T14:16:52.483Z,91.35
2023-05-10T14:19:18.948Z,91.27
2023-05-10T14:21:45.391Z,90.98
2023-05-10T14:24:11.849Z,90.26
2023-05-10T14:26:38.426Z,90.08
2023-05-10T14:29:04.840Z,89.92
2023-05-10T14:31:31.743Z,90.18
2023-05-10T14:33:58.736Z,89.88
2023-05-10T14:36:25.475Z,89.25
2023-05-10T14:38:52.531Z,89.07
2023-05-10T14:41:19.166Z,89.03
2023-05-10T14:43:45.744Z,88.41
2023-05-10T14:46:12.266Z,88.29
2023-05-10T14:48:38.800Z,88.22
2023-05-10T14:51:05.242Z,88.08
2023-05-10T14:53:31.767Z,88.18
2023-05-10T14:55:58.395Z,88.45
2023-05-10T14:58:24.937Z,88.77
2023-05-10T15:00:51.978Z,88.49
2023-05-10T15:03:18.950Z,88.62
2023-05-10T15:05:45.941Z,88.22
2023-05-10T15:08:13.519Z,88.51
2023-05-10T15:10:40.867Z,88.46
2023-05-10T15:13:07.318Z,88.29
2023-05-10T15:15:33.840Z,87.45
2023-05-10T15:18:00.357Z,87.25
2023-05-10T15:20:26.843Z,87.24
2023-05-10T15:22:53.345Z,87.27
2023-05-10T15:25:19.820Z,87.10
2023-05-10T15:27:46.338Z,87.16
2023-05-10T15:30:13.343Z,87.51
2023-05-10T15:32:40.998Z,87.30
2023-05-10T15:35:09.178Z,87.62
2023-05-10T15:37:35.804Z,87.47
2023-05-10T15:40:04.913Z,87.54
2023-05-10T15:42:32.547Z,87.42
2023-05-10T15:44:59.410Z,87.43
2023-05-10T15:47:27.129Z,87.49
2023-05-10T15:49:53.585Z,87.68
2023-05-10T15:52:21.625Z,87.63
2023-05-10T15:54:48.021Z,87.84
2023-05-10T15:57:14.432Z,87.40
2023-05-10T15:59:40.886Z,87.33
2023-05-10T16:02:08.736Z,87.25
2023-05-10T16:04:35.289Z,87.36
2023-05-10T16:07:01.797Z,87.50
2023-05-10T16:09:28.260Z,87.72
2023-05-10T16:11:54.708Z,87.76
2023-05-10T16:14:24.701Z,87.91
2023-05-10T16:16:51.578Z,87.92
2023-05-10T16:19:18.484Z,87.67
2023-05-10T16:21:45.159Z,87.76
2023-05-10T16:24:11.729Z,87.66
2023-05-10T16:26:40.991Z,87.50
2023-05-10T16:29:08.649Z,87.40
2023-05-10T16:31:35.339Z,87.77
2023-05-10T16:34:01.883Z,87.60
2023-05-10T16:36:29.490Z,87.64
2023-05-10T16:38:56.032Z,87.58
2023-05-10T16:41:22.766Z,87.95
2023-05-10T16:43:49.436Z,88.17
2023-05-10T16:46:16.169Z,88.50
2023-05-10T16:48:42.778Z,88.23
2023-05-10T16:51:09.362Z,88.40
2023-05-10T16:53:36.436Z,88.37
2023-05-10T16:56:03.641Z,87.94
2023-05-10T16:58:30.223Z,87.87
2023-05-10T17:00:56.646Z,88.25
2023-05-10T17:03:23.424Z,88.14
2023-05-10T17:05:50.070Z,88.01
2023-05-10T17:08:16.697Z,87.93
2023-05-10T17:10:43.175Z,88.14
2023-05-10T17:13:10.578Z,89.06
2023-05-10T17:15:38.003Z,89.48
2023-05-10T17:18:05.150Z,89.53
2023-05-10T17:20:31.738Z,89.96
2023-05-10T17:22:58.187Z,89.99
2023-05-10T17:25:24.653Z,89.97
2023-05-10T17:27:51.051Z,89.68
2023-05-10T17:30:22.444Z,90.71
2023-05-10T17:32:48.979Z,90.77
2023-05-10T17:35:15.632Z,90.75
2023-05-10T17:37:42.454Z,90.51
2023-05-10T17:40:09.982Z,91.13
2023-05-10T17:42:36.733Z,90.95
2023-05-10T17:45:03.814Z,91.54
2023-05-10T17:47:31.483Z,91.60
2023-05-10T17:49:57.932Z,91.70
2023-05-10T17:52:24.339Z,92.41
2023-05-10T17:54:51.149Z,92.33
2023-05-10T17:57:18.415Z,93.25
2023-05-10T17:59:44.859Z,93.42
2023-05-10T18:02:11.306Z,93.63
2023-05-10T18:04:40.060Z,93.36
2023-05-10T18:07:07.870Z,94.04
2023-05-10T18:09:34.346Z,93.91
2023-05-10T18:12:04.092Z,93.89
2023-05-10T18:14:40.431Z,94.24
2023-05-10T18:17:08.159Z,94.15
2023-05-10T18:19:34.748Z,94.66
2023-05-10T18:22:01.251Z,94.89
2023-05-10T18:24:38.282Z,94.58
2023-05-10T18:27:06.630Z,95.03
2023-05-10T18:29:33.169Z,94.87
2023-05-10T18:31:59.721Z,94.75
2023-05-10T18:34:26.263Z,95.34
2023-05-10T18:36:52.944Z,95.65
2023-05-10T18:39:19.525Z,94.98
2023-05-10T18:41:46.027Z,95.51
2023-05-10T18:44:12.607Z,95.03
2023-05-10T18:46:39.250Z,95.21
2023-05-10T18:49:06.600Z,95.19
2023-05-10T18:51:33.072Z,95.15
2023-05-10T18:53:59.597Z,95.38
2023-05-10T18:56:26.249Z,95.97
2023-05-10T18:58:52.748Z,95.93
2023-05-10T19:01:19.285Z,96.12
2023-05-10T19:03:45.796Z,96.30
2023-05-10T19:06:12.228Z,96.53
2023-05-10T19:08:38.663Z,96.89
2023-05-10T19:11:05.248Z,96.75
2023-05-10T19:13:31.818Z,96.60
2023-05-10T19:16:16.443Z,97.40
2023-05-10T19:18:45.235Z,97.17
2023-05-10T19:21:11.863Z,97.64
2023-05-10T19:23:40.161Z,97.07
2023-05-10T19:26:06.635Z,97.17
2023-05-10T19:28:34.220Z,97.36
2023-05-10T19:31:01.641Z,97.30
2023-05-10T19:33:28.491Z,97.67
2023-05-10T19:35:55.709Z,97.41
2023-05-10T19:38:23.484Z,97.94
2023-05-10T19:40:51.242Z,97.63
2023-05-10T19:43:17.780Z,97.65
2023-05-10T19:45:44.288Z,97.77
2023-05-10T19:48:11.084Z,97.45
2023-05-10T19:50:38.488Z,97.04
2023-05-10T19:53:04.999Z,97.23
2023-05-10T19:55:32.186Z,97.07
2023-05-10T19:58:00.606Z,97.44
2023-05-10T20:00:29.996Z,97.15
2023-05-10T20:02:56.478Z,96.72
2023-05-10T20:05:23.380Z,96.67
2023-05-10T20:07:50.602Z,96.23
2023-05-10T20:10:17.715Z,95.99
2023-05-10T20:12:51.304Z,96.01
2023-05-10T20:15:22.980Z,96.58
2023-05-10T20:17:53.990Z,96.50
2023-05-10T20:20:21.090Z,96.66
2023-05-10T20:22:48.386Z,96.55
2023-05-10T20:25:15.926Z,96.56
2023-05-10T20:27:42.954Z,96.12
2023-05-10T20:30:10.462Z,96.31
2023-05-10T20:32:37.475Z,96.00
2023-05-10T20:35:04.557Z,96.34
2023-05-10T20:37:31.037Z,96.06
2023-05-10T20:39:57.574Z,96.47
2023-05-10T20:42:24.137Z,96.00
2023-05-10T20:44:50.621Z,96.22
2023-05-10T20:47:18.050Z,96.07
2023-05-10T20:49:44.527Z,95.95
2023-05-10T20:52:11.008Z,96.41
2023-05-10T20:54:37.454Z,96.26
2023-05-10T20:57:03.939Z,96.24
2023-05-10T20:59:30.403Z,96.30
2023-05-10T21:01:57.552Z,96.23
2023-05-10T21:04:25.435Z,96.27
2023-05-10T21:06:52.931Z,95.92
2023-05-10T21:09:19.507Z,96.14
2023-05-10T21:11:46.154Z,96.07
2023-05-10T21:14:12.561Z,96.08
2023-05-10T21:16:39.166Z,95.62
2023-05-10T21:19:07.229Z,95.35
2023-05-10T21:21:33.980Z,95.84
2023-05-10T21:24:00.490Z,95.81
2023-05-10T21:26:26.941Z,95.96
2023-05-10T21:28:53.433Z,96.08
2023-05-10T21:31:20.205Z,96.15
2023-05-10T21:33:46.794Z,95.82
2023-05-10T21:36:13.974Z,95.46
2023-05-10T21:38:40.915Z,95.48
2023-05-10T21:41:08.161Z,95.53
2023-05-10T21:43:34.723Z,95.58
2023-05-10T21:46:01.466Z,96.02
2023-05-10T21:48:28.106Z,95.34
2023-05-10T21:50:54.560Z,95.83
2023-05-10T21:53:21.031Z,95.97
2023-05-10T21:55:48.089Z,95.51
2023-05-10T21:58:14.604Z,95.61
2023-05-10T22:00:41.092Z,96.00
2023-05-10T22:03:07.711Z,95.70
2023-05-10T22:05:34.339Z,96.29
2023-05-10T22:08:01.005Z,96.42
2023-05-10T22:10:27.485Z,95.73
2023-05-10T22:12:53.964Z,96.21
2023-05-10T22:15:20.468Z,96.47
2023-05-10T22:17:46.999Z,96.08
2023-05-10T22:20:14.457Z,96.07
2023-05-10T22:22:40.902Z,96.58
2023-05-10T22:25:07.807Z,96.46
2023-05-10T22:27:34.609Z,96.69
2023-05-10T22:30:01.519Z,95.96
2023-05-10T22:32:28.175Z,96.56
2023-05-10T22:34:54.824Z,96.08
2023-05-10T22:37:21.227Z,95.94
2023-05-10T22:39:48.760Z,96.13
2023-05-10T22:42:15.898Z,96.22
2023-05-10T22:44:42.768Z,96.36
2023-05-10T22:47:09.277Z,95.85
2023-05-10T22:49:36.083Z,96.35
2023-05-10T22:52:02.507Z,95.71
2023-05-10T22:54:29.047Z,95.74
2023-05-10T22:56:56.471Z,95.27
2023-05-10T22:59:23.122Z,95.94
2023-05-10T23:01:49.585Z,95.36
2023-05-10T23:04:16.106Z,95.53
2023-05-10T23:06:42.557Z,95.92
2023-05-10T23:09:09.770Z,95.70
2023-05-10T23:11:36.498Z,95.65
2023-05-10T23:14:03.140Z,95.51
2023-05-10T23:16:30.528Z,95.51
2023-05-10T23:18:57.124Z,95.61
2023-05-10T23:21:25.178Z,95.88
2023-05-10T23:23:51.952Z,95.39
2023-05-10T23:26:18.403Z,95.23
2023-05-10T23:28:44.789Z,95.00
2023-05-10T23:31:11.203Z,95.16
2023-05-10T23:33:37.649Z,95.48
2023-05-10T23:36:04.217Z,94.75
2023-05-10T23:38:30.668Z,95.05
2023-05-10T23:40:57.227Z,95.61
2023-05-10T23:43:25.220Z,95.41
2023-05-10T23:45:58.480Z,95.96
2023-05-10T23:48:25.599Z,95.46
2023-05-10T23:50:52.250Z,95.50
2023-05-10T23:53:18.774Z,95.39
2023-05-10T23:55:45.480Z,94.96
2023-05-10T23:58:12.578Z,94.50
